createdAt,value
2019-04-21T00:01:34.702Z,29.45
2019-04-21T00:04:12.442Z,30.10
2019-04-21T00:06:48.168Z,28.40
2019-04-21T00:09:26.074Z,29.48
2019-04-21T00:11:57.169Z,29.18
2019-04-21T00:14:18.132Z,29.85
2019-04-21T00:16:45.426Z,30.90
2019-04-21T00:19:14.491Z,30.10
2019-04-21T00:24:24.264Z,29.40
2019-04-21T00:27:04.107Z,30.35
2019-04-21T00:29:38.466Z,29.82
2019-04-21T00:32:03.391Z,29.98
2019-04-21T00:34:19.457Z,31.02
2019-04-21T00:37:00.157Z,30.08
2019-04-21T00:39:49.574Z,29.67
2019-04-21T00:42:12.957Z,30.10
2019-04-21T00:44:29.842Z,31.62
2019-04-21T00:47:03.075Z,31.25
2019-04-21T00:49:37.667Z,32.17
2019-04-21T00:52:28.837Z,30.72
2019-04-21T00:55:05.992Z,31.70
2019-04-21T00:57:25.212Z,31.25
2019-04-21T00:59:52.266Z,31.10
2019-04-21T01:02:26.125Z,30.92
2019-04-21T01:05:02.078Z,30.97
2019-04-21T01:07:26.928Z,31.30
2019-04-21T01:09:49.671Z,30.48
2019-04-21T01:12:26.828Z,31.90
2019-04-21T01:15:04.670Z,32.03
2019-04-21T01:17:30.270Z,32.75
2019-04-21T01:19:56.032Z,32.30
2019-04-21T01:22:08.945Z,31.52
2019-04-21T01:24:42.943Z,32.98
2019-04-21T01:27:21.650Z,33.45
2019-04-21T01:30:02.961Z,33.88
2019-04-21T01:32:29.545Z,32.45
2019-04-21T01:35:02.478Z,31.57
2019-04-21T01:37:41.164Z,32.80
2019-04-21T01:40:14.009Z,31.68
2019-04-21T01:42:33.524Z,32.80
2019-04-21T01:45:00.043Z,32.95
2019-04-21T01:47:29.325Z,32.90
2019-04-21T01:49:53.320Z,32.95
2019-04-21T01:55:06.013Z,32.67
2019-04-21T02:00:04.044Z,31.15
2019-04-21T02:02:46.221Z,31.40
2019-04-21T02:05:18.778Z,31.87
2019-04-21T02:07:44.321Z,31.30
2019-04-21T02:10:22.663Z,31.57
2019-04-21T02:12:46.034Z,30.65
2019-04-21T02:15:17.085Z,31.90
2019-04-21T02:17:43.733Z,32.33
2019-04-21T02:20:09.410Z,31.95
2019-04-21T02:23:06.415Z,31.52
2019-04-21T02:25:22.879Z,29.45
2019-04-21T02:27:54.755Z,30.35
2019-04-21T02:30:33.523Z,30.43
2019-04-21T02:33:02.803Z,31.52
2019-04-21T02:35:38.493Z,31.00
2019-04-21T02:38:01.198Z,30.82
2019-04-21T02:40:33.960Z,30.77
2019-04-21T02:43:07.104Z,30.97
2019-04-21T02:45:30.196Z,29.75
2019-04-21T02:48:04.644Z,30.50
2019-04-21T02:50:34.023Z,29.60
2019-04-21T02:53:13.933Z,29.95
2019-04-21T02:55:31.163Z,28.83
2019-04-21T02:58:09.995Z,30.55
2019-04-21T03:03:13.454Z,29.63
2019-04-21T03:05:54.688Z,29.50
2019-04-21T03:08:25.911Z,28.70
2019-04-21T03:13:29.153Z,28.23
2019-04-21T03:18:24.361Z,28.27
2019-04-21T03:21:00.956Z,28.23
2019-04-21T03:23:31.259Z,28.52
2019-04-21T03:25:51.986Z,27.90
2019-04-21T03:40:57.302Z,27.45
2019-04-21T03:43:36.441Z,27.30
2019-04-21T03:45:58.826Z,28.12
2019-04-21T03:48:35.756Z,28.35
2019-04-21T03:51:04.847Z,27.42
2019-04-21T03:53:31.307Z,27.37
2019-04-21T03:56:12.452Z,26.95
2019-04-21T03:58:53.054Z,26.90
2019-04-21T04:01:08.273Z,27.27
2019-04-21T04:06:20.549Z,26.00
2019-04-21T04:11:31.689Z,25.68
2019-04-21T04:14:04.094Z,25.60
2019-04-21T04:19:05.884Z,25.15
2019-04-21T04:26:37.005Z,25.00
2019-04-21T04:29:06.242Z,24.43
2019-04-21T04:34:04.758Z,23.67
2019-04-21T04:39:37.987Z,24.10
2019-04-21T04:42:03.342Z,23.07
2019-04-21T04:44:51.542Z,22.50
2019-04-21T04:47:05.843Z,22.98
2019-04-21T04:54:41.821Z,22.98
2019-04-21T04:57:08.208Z,23.30
2019-04-21T05:02:14.898Z,24.25
2019-04-21T05:04:35.476Z,24.05
2019-04-21T05:09:30.831Z,23.67
2019-04-21T05:12:00.124Z,23.38
2019-04-21T05:14:30.429Z,23.65
2019-04-21T05:17:08.574Z,23.60
2019-04-21T05:19:34.726Z,22.05
2019-04-21T05:24:23.060Z,20.17
2019-04-21T05:26:53.389Z,20.12
2019-04-21T05:29:20.400Z,19.05
2019-04-21T05:32:09.300Z,19.48
2019-04-21T05:34:37.394Z,19.20
2019-04-21T05:37:18.767Z,18.37
2019-04-21T05:39:37.532Z,17.37
2019-04-21T05:42:08.142Z,17.25
2019-04-21T05:44:59.396Z,17.07
2019-04-21T05:49:52.403Z,16.37
2019-04-21T05:52:21.426Z,15.55
2019-04-21T05:54:57.448Z,15.32
2019-04-21T05:57:22.941Z,15.32
2019-04-21T05:59:53.666Z,15.18
2019-04-21T06:02:47.940Z,15.03
2019-04-21T06:05:05.877Z,14.83
2019-04-21T06:07:28.766Z,13.20
2019-04-21T06:09:59.644Z,13.78
2019-04-21T06:12:31.591Z,13.53
2019-04-21T06:15:02.598Z,13.03
2019-04-21T06:20:00.123Z,13.55
2019-04-21T06:22:30.112Z,14.03
2019-04-21T06:27:38.903Z,14.47
2019-04-21T06:30:04.168Z,13.63
2019-04-21T06:32:47.183Z,13.30
2019-04-21T06:35:23.776Z,12.50
2019-04-21T06:37:56.999Z,12.37
2019-04-21T06:40:21.347Z,12.25
2019-04-21T06:42:53.910Z,11.48
2019-04-21T06:45:21.664Z,10.95
2019-04-21T06:48:04.237Z,9.93
2019-04-21T06:50:15.833Z,9.85
2019-04-21T06:55:15.329Z,9.43
2019-04-21T06:57:45.674Z,9.18
2019-04-21T07:00:12.041Z,8.10
2019-04-21T07:02:52.121Z,8.50
2019-04-21T07:05:24.745Z,8.40
2019-04-21T07:08:05.764Z,8.25
2019-04-21T07:10:24.194Z,17.82
2019-04-21T07:12:48.288Z,8.85
2019-04-21T07:15:25.293Z,8.03
2019-04-21T07:17:53.993Z,7.75
2019-04-21T07:20:21.541Z,8.18
2019-04-21T07:22:55.170Z,8.03
2019-04-21T07:25:22.567Z,7.67
2019-04-21T07:27:52.652Z,7.58
2019-04-21T07:30:31.530Z,7.62
2019-04-21T07:33:05.587Z,7.45
2019-04-21T07:35:26.535Z,7.75
2019-04-21T07:40:23.137Z,6.10
2019-04-21T07:42:57.649Z,6.05
2019-04-21T07:45:26.571Z,5.97
2019-04-21T07:48:16.836Z,6.20
2019-04-21T07:51:04.294Z,6.00
2019-04-21T07:53:49.422Z,6.40
2019-04-21T07:56:06.502Z,5.53
2019-04-21T07:58:53.766Z,6.08
2019-04-21T08:01:20.171Z,6.05
2019-04-21T08:04:14.807Z,6.53
2019-04-21T08:06:20.728Z,6.33
2019-04-21T08:08:51.060Z,6.03
2019-04-21T08:11:15.280Z,6.42
2019-04-21T08:13:55.129Z,6.62
2019-04-21T08:16:24.444Z,5.72
2019-04-21T08:18:52.366Z,5.87
2019-04-21T08:21:24.631Z,5.78
2019-04-21T08:23:48.513Z,5.78
2019-04-21T08:26:24.570Z,5.85
2019-04-21T08:28:52.102Z,5.50
2019-04-21T08:38:58.264Z,5.45
2019-04-21T08:41:27.728Z,5.50
2019-04-21T08:43:56.124Z,5.42
2019-04-21T08:46:31.549Z,4.87
2019-04-21T08:49:04.333Z,5.47
2019-04-21T08:51:33.294Z,5.05
2019-04-21T08:54:03.923Z,5.15
2019-04-21T08:56:48.303Z,5.83
2019-04-21T08:59:25.523Z,5.30
2019-04-21T09:01:55.573Z,5.42
2019-04-21T09:04:29.007Z,5.03
2019-04-21T09:07:19.630Z,4.60
2019-04-21T09:09:38.131Z,4.95
2019-04-21T09:12:04.446Z,4.45
2019-04-21T09:14:30.924Z,5.33
2019-04-21T09:16:56.547Z,4.90
2019-04-21T09:19:48.336Z,4.58
2019-04-21T09:22:05.686Z,4.43
2019-04-21T09:24:35.162Z,4.37
2019-04-21T09:27:06.409Z,4.25
2019-04-21T09:29:26.533Z,4.55
2019-04-21T09:31:48.499Z,4.78
2019-04-21T09:34:24.910Z,4.53
2019-04-21T09:36:52.118Z,3.80
2019-04-21T09:39:21.992Z,3.70
2019-04-21T09:41:53.496Z,4.08
2019-04-21T09:44:30.202Z,4.10
2019-04-21T09:47:01.024Z,4.17
2019-04-21T09:49:31.673Z,4.55
2019-04-21T09:52:02.259Z,4.75
2019-04-21T09:54:45.231Z,4.25
2019-04-21T09:57:25.740Z,3.85
2019-04-21T10:00:02.199Z,3.80
2019-04-21T10:02:34.291Z,3.87
2019-04-21T10:05:09.952Z,3.67
2019-04-21T10:07:50.816Z,3.77
2019-04-21T10:10:27.607Z,3.70
2019-04-21T10:13:05.056Z,3.52
2019-04-21T10:15:37.859Z,3.98
2019-04-21T10:18:15.129Z,4.40
2019-04-21T10:20:51.509Z,4.25
2019-04-21T10:23:27.437Z,4.35
2019-04-21T10:25:59.045Z,3.95
2019-04-21T10:28:35.044Z,4.40
2019-04-21T10:31:14.420Z,4.20
2019-04-21T10:33:52.650Z,4.17
2019-04-21T10:36:26.849Z,4.50
2019-04-21T10:38:57.619Z,3.90
2019-04-21T10:41:29.834Z,4.55
2019-04-21T10:44:07.213Z,3.83
2019-04-21T10:46:40.581Z,4.00
2019-04-21T10:49:12.926Z,3.80
2019-04-21T10:51:46.741Z,4.37
2019-04-21T10:54:22.039Z,4.00
2019-04-21T10:56:52.618Z,4.28
2019-04-21T10:59:26.910Z,4.28
2019-04-21T11:02:00.996Z,3.87
2019-04-21T11:04:37.379Z,4.53
2019-04-21T11:07:15.490Z,4.65
2019-04-21T11:09:44.326Z,4.40
2019-04-21T11:12:17.621Z,4.22
2019-04-21T11:14:52.014Z,4.10
2019-04-21T11:17:25.935Z,4.10
2019-04-21T11:19:59.084Z,4.20
2019-04-21T11:22:40.045Z,4.03
2019-04-21T11:25:15.857Z,4.07
2019-04-21T11:27:58.801Z,4.35
2019-04-21T11:30:31.738Z,4.35
2019-04-21T11:33:07.065Z,4.58
2019-04-21T11:35:41.353Z,17.60
2019-04-21T11:38:52.696Z,4.22
2019-04-21T11:41:08.080Z,3.90
2019-04-21T11:43:39.155Z,3.98
2019-04-21T11:46:12.645Z,3.85
2019-04-21T11:48:48.318Z,3.27
2019-04-21T11:51:30.941Z,5.45
2019-04-21T11:54:04.600Z,7.55
2019-04-21T11:56:48.537Z,4.30
2019-04-21T11:59:19.622Z,3.80
2019-04-21T12:01:55.324Z,4.30
2019-04-21T12:04:25.576Z,7.15
2019-04-21T12:06:57.875Z,3.12
2019-04-21T12:09:30.973Z,3.37
2019-04-21T12:12:03.423Z,2.65
2019-04-21T12:14:41.978Z,3.17
2019-04-21T12:17:14.321Z,2.95
2019-04-21T12:19:52.649Z,2.92
2019-04-21T12:22:29.969Z,2.95
2019-04-21T12:24:58.486Z,2.95
2019-04-21T12:27:32.217Z,2.90
2019-04-21T12:30:03.915Z,2.70
2019-04-21T12:35:17.639Z,2.67
2019-04-21T12:37:49.359Z,2.95
2019-04-21T12:40:30.635Z,2.60
2019-04-21T12:43:00.949Z,2.90
2019-04-21T12:45:31.614Z,3.20
2019-04-21T12:48:08.246Z,3.00
2019-04-21T12:50:43.711Z,3.37
2019-04-21T12:53:25.560Z,2.83
2019-04-21T12:55:57.867Z,2.45
2019-04-21T12:58:31.112Z,2.50
2019-04-21T13:01:03.038Z,3.80
2019-04-21T13:06:15.921Z,2.60
2019-04-21T13:08:55.622Z,2.75
2019-04-21T13:11:29.283Z,2.70
2019-04-21T13:14:03.999Z,2.77
2019-04-21T13:16:34.572Z,2.40
2019-04-21T13:19:09.346Z,2.52
2019-04-21T13:21:42.379Z,3.00
2019-04-21T13:24:26.069Z,3.10
2019-04-21T13:26:59.826Z,2.52
2019-04-21T13:29:32.349Z,2.70
2019-04-21T13:32:08.909Z,2.65
2019-04-21T13:34:40.106Z,3.00
2019-04-21T13:37:12.454Z,2.60
2019-04-21T13:42:30.177Z,3.10
2019-04-21T13:47:42.865Z,2.45
2019-04-21T13:50:17.341Z,3.67
2019-04-21T13:52:51.636Z,2.15
2019-04-21T13:55:23.506Z,2.00
2019-04-21T13:57:52.879Z,1.92
2019-04-21T14:00:37.952Z,2.12
2019-04-21T14:03:21.031Z,2.00
2019-04-21T14:05:50.656Z,2.00
2019-04-21T14:10:55.725Z,2.02
2019-04-21T14:13:30.267Z,2.10
2019-04-21T14:16:02.229Z,1.87
2019-04-21T14:18:34.216Z,2.20
2019-04-21T14:21:04.975Z,2.10
2019-04-21T14:23:41.872Z,2.25
2019-04-21T14:26:08.678Z,1.80
2019-04-21T14:28:40.957Z,2.15
2019-04-21T14:31:12.498Z,2.10
2019-04-21T14:36:16.767Z,3.00
2019-04-21T14:38:52.358Z,2.25
2019-04-21T14:41:28.765Z,2.37
2019-04-21T14:44:01.060Z,2.22
2019-04-21T14:46:35.003Z,2.60
2019-04-21T14:49:19.435Z,2.52
2019-04-21T14:51:54.819Z,2.30
2019-04-21T14:54:42.618Z,2.40
2019-04-21T14:57:15.552Z,2.30
2019-04-21T14:59:49.091Z,2.65
2019-04-21T15:02:20.271Z,2.40
2019-04-21T15:04:51.472Z,2.17
2019-04-21T15:10:02.424Z,2.60
2019-04-21T15:12:25.876Z,3.35
2019-04-21T15:15:00.255Z,2.42
2019-04-21T15:17:31.597Z,2.37
2019-04-21T15:20:10.513Z,2.42
2019-04-21T15:22:39.190Z,2.50
2019-04-21T15:25:10.022Z,2.50
2019-04-21T15:27:46.714Z,2.50
2019-04-21T15:30:18.679Z,2.52
2019-04-21T15:32:48.744Z,2.20
2019-04-21T15:35:17.519Z,2.20
2019-04-21T15:37:49.865Z,2.40
2019-04-21T15:40:30.225Z,2.12
2019-04-21T15:42:52.508Z,2.33
2019-04-21T15:45:22.241Z,2.42
2019-04-21T15:47:52.324Z,2.30
2019-04-21T15:50:24.705Z,2.90
2019-04-21T15:52:57.951Z,2.47
2019-04-21T15:55:46.668Z,2.20
2019-04-21T15:58:24.849Z,2.40
2019-04-21T16:01:14.496Z,2.92
2019-04-21T16:03:44.839Z,2.37
2019-04-21T16:06:14.570Z,2.40
2019-04-21T16:08:47.496Z,2.47
2019-04-21T16:11:17.567Z,2.40
2019-04-21T16:13:47.807Z,2.83
2019-04-21T16:16:17.538Z,2.83
2019-04-21T16:18:47.871Z,2.72
2019-04-21T16:21:18.050Z,2.33
2019-04-21T16:23:49.040Z,2.47
2019-04-21T16:26:40.414Z,2.95
2019-04-21T16:29:13.415Z,2.70
2019-04-21T16:31:57.470Z,2.67
2019-04-21T16:34:43.533Z,2.60
2019-04-21T16:37:25.774Z,2.60
2019-04-21T16:40:01.257Z,2.30
2019-04-21T16:42:34.196Z,2.42
2019-04-21T16:45:10.624Z,2.10
2019-04-21T16:47:42.179Z,2.55
2019-04-21T16:55:35.236Z,2.70
2019-04-21T16:58:18.145Z,2.40
2019-04-21T17:00:57.554Z,2.40
2019-04-21T17:03:18.862Z,2.65
2019-04-21T17:05:48.142Z,2.60
2019-04-21T17:08:18.166Z,2.40
2019-04-21T17:10:58.965Z,2.50
2019-04-21T17:16:07.765Z,2.72
2019-04-21T17:18:36.740Z,2.45
2019-04-21T17:23:25.155Z,3.62
2019-04-21T17:25:55.211Z,4.78
2019-04-21T17:28:25.893Z,3.55
2019-04-21T17:30:56.202Z,4.33
2019-04-21T17:33:28.031Z,4.95
2019-04-21T17:35:56.867Z,5.00
2019-04-21T17:38:26.430Z,5.37
2019-04-21T17:41:09.452Z,4.60
2019-04-21T17:43:27.672Z,4.97
2019-04-21T17:45:59.324Z,5.37
2019-04-21T17:48:29.282Z,5.85
2019-04-21T17:51:01.253Z,5.50
2019-04-21T17:53:38.209Z,5.72
2019-04-21T17:56:23.462Z,6.10
2019-04-21T17:59:01.737Z,5.80
2019-04-21T18:01:32.060Z,6.62
2019-04-21T18:04:10.910Z,6.15
2019-04-21T18:06:36.604Z,6.42
2019-04-21T18:09:20.441Z,5.87
2019-04-21T18:11:49.438Z,6.03
2019-04-21T18:13:57.541Z,5.53
2019-04-21T18:16:35.439Z,5.80
2019-04-21T18:18:59.150Z,5.27
2019-04-21T18:21:32.906Z,5.10
2019-04-21T18:24:08.026Z,5.20
2019-04-21T18:26:46.779Z,5.40
2019-04-21T18:29:09.556Z,5.12
2019-04-21T18:31:44.564Z,4.85
2019-04-21T18:34:13.980Z,4.97
2019-04-21T18:36:48.001Z,5.00
2019-04-21T18:39:34.284Z,5.15
2019-04-21T18:42:09.409Z,5.70
2019-04-21T18:44:53.716Z,5.60
2019-04-21T18:47:31.496Z,6.00
2019-04-21T18:49:45.931Z,5.60
2019-04-21T18:52:26.732Z,5.95
2019-04-21T18:55:01.180Z,6.30
2019-04-21T18:57:27.400Z,7.08
2019-04-21T18:59:51.320Z,5.97
2019-04-21T19:02:22.315Z,5.95
2019-04-21T19:04:55.854Z,5.90
2019-04-21T19:07:37.763Z,5.90
2019-04-21T19:10:33.921Z,5.83
2019-04-21T19:13:09.130Z,5.90
2019-04-21T19:15:07.690Z,9.63
2019-04-21T19:20:13.911Z,6.30
2019-04-21T19:22:42.084Z,6.03
2019-04-21T19:25:25.343Z,6.85
2019-04-21T19:27:41.842Z,6.05
2019-04-21T19:32:41.342Z,6.15
2019-04-21T19:35:03.347Z,6.15
2019-04-21T19:37:43.004Z,5.95
2019-04-21T19:40:26.916Z,6.10
2019-04-21T19:42:51.163Z,5.92
2019-04-21T19:45:26.618Z,6.30
2019-04-21T19:54:40.925Z,5.90
2019-04-21T19:57:08.946Z,6.00
2019-04-21T19:59:44.638Z,6.15
2019-04-21T20:02:09.630Z,6.08
2019-04-21T20:04:46.648Z,5.80
2019-04-21T20:07:23.395Z,6.12
2019-04-21T20:09:57.644Z,6.12
2019-04-21T20:12:35.567Z,5.87
2019-04-21T20:15:08.064Z,6.25
2019-04-21T20:17:33.534Z,5.95
2019-04-21T20:19:46.048Z,5.90
2019-04-21T20:22:15.155Z,5.83
2019-04-21T20:24:49.998Z,5.72
2019-04-21T20:27:24.074Z,6.47
2019-04-21T20:30:03.427Z,6.42
2019-04-21T20:32:38.470Z,5.70
2019-04-21T20:35:07.146Z,6.40
2019-04-21T20:37:31.515Z,6.10
2019-04-21T20:39:56.190Z,5.90
2019-04-21T20:42:35.090Z,6.03
2019-04-21T20:45:25.231Z,6.30
2019-04-21T20:47:31.163Z,6.60
2019-04-21T20:50:03.261Z,5.90
2019-04-21T20:52:41.720Z,6.92
